Time;durP1;ratioP1;P1;durP2;ratioP2;P2;SDS_P1;SDS_P2;PMS_P1;PMS_P2;Temp;Humidity;BMP_temperature;BMP_pressure;BME280_temperature;BME280_humidity;BME280_pressure;Samples;Min_cycle;Max_cycle;Signal;HPM_P1;HPM_P2
2022/03/10 00:02:15;;;;;;;20.23;10.93;;;4.20;98.00;;;;;;5090333;28;20146;-72
2022/03/10 00:04:40;;;;;;;18.67;10.52;;;4.10;99.30;;;;;;5089357;28;20389;-72
2022/03/10 00:07:06;;;;;;;24.23;10.38;;;4.10;99.90;;;;;;5090627;28;20036;-72
2022/03/10 00:09:33;;;;;;;20.17;11.55;;;4.00;99.90;;;;;;5089407;28;20174;-72
2022/03/10 00:11:59;;;;;;;20.42;10.88;;;4.00;99.90;;;;;;5088850;28;20055;-73
2022/03/10 00:14:25;;;;;;;21.50;11.50;;;4.00;99.90;;;;;;5089341;28;20882;-72
2022/03/10 00:16:51;;;;;;;20.20;11.07;;;4.10;99.90;;;;;;5090984;28;20075;-73
2022/03/10 00:19:16;;;;;;;21.38;11.25;;;4.10;99.90;;;;;;5099129;28;20048;-72
2022/03/10 00:21:43;;;;;;;18.20;11.65;;;4.00;99.90;;;;;;5096899;28;20043;-73
2022/03/10 00:24:08;;;;;;;23.23;11.60;;;4.00;99.60;;;;;;5090074;28;20059;-72
2022/03/10 00:26:34;;;;;;;19.35;11.15;;;4.10;99.90;;;;;;5108322;28;20098;-73
2022/03/10 00:29:00;;;;;;;18.98;11.25;;;4.10;99.90;;;;;;5107132;28;20435;-72
2022/03/10 00:31:25;;;;;;;17.77;10.30;;;4.00;99.90;;;;;;5072607;28;20050;-72
2022/03/10 00:33:51;;;;;;;22.17;11.60;;;3.90;99.30;;;;;;5089851;28;20036;-72
2022/03/10 00:36:16;;;;;;;20.27;11.07;;;3.90;99.80;;;;;;5090762;28;20036;-72
2022/03/10 00:38:43;;;;;;;21.25;10.70;;;3.90;99.50;;;;;;5089313;28;20068;-72
2022/03/10 00:41:09;;;;;;;20.08;12.07;;;3.80;99.90;;;;;;5090431;28;20119;-72
2022/03/10 00:43:35;;;;;;;20.75;11.48;;;3.80;99.90;;;;;;5092326;28;20091;-72
2022/03/10 00:46:02;;;;;;;20.70;10.88;;;3.90;99.40;;;;;;5103191;28;20085;-72
2022/03/10 00:48:27;;;;;;;20.67;10.80;;;3.80;99.90;;;;;;5093463;28;20040;-73
2022/03/10 00:50:53;;;;;;;18.60;11.73;;;3.80;99.70;;;;;;5072718;28;20404;-72
2022/03/10 00:53:19;;;;;;;25.30;11.98;;;3.80;99.90;;;;;;5089541;28;20036;-73
2022/03/10 00:55:44;;;;;;;24.17;11.73;;;3.80;99.90;;;;;;5088759;28;20090;-72
2022/03/10 00:58:10;;;;;;;18.33;11.48;;;3.80;99.30;;;;;;5088757;28;20051;-72
2022/03/10 01:00:35;;;;;;;22.45;11.60;;;3.80;99.90;;;;;;5089365;28;20047;-72
2022/03/10 01:03:01;;;;;;;21.98;11.13;;;3.80;99.00;;;;;;5093423;28;20028;-72
2022/03/10 01:05:26;;;;;;;23.50;11.75;;;3.70;99.80;;;;;;5094425;28;20040;-72
2022/03/10 01:07:52;;;;;;;25.52;12.00;;;3.80;99.90;;;;;;5093229;28;20511;-72
2022/03/10 01:10:18;;;;;;;20.35;11.25;;;3.80;99.00;;;;;;5093091;28;20448;-71
2022/03/10 01:12:45;;;;;;;18.35;11.07;;;3.80;99.90;;;;;;5092140;28;20039;-72
2022/03/10 01:15:15;;;;;;;19.23;11.73;;;3.80;99.90;;;;;;5092850;28;20044;-72
2022/03/10 01:17:41;;;;;;;23.85;11.30;;;3.80;99.90;;;;;;5092578;28;20123;-72
2022/03/10 01:20:07;;;;;;;19.98;11.30;;;3.80;99.90;;;;;;5094068;28;20115;-71
2022/03/10 01:22:34;;;;;;;22.90;11.38;;;3.80;99.90;;;;;;5093453;28;20063;-71
2022/03/10 01:25:00;;;;;;;18.33;10.05;;;3.70;99.90;;;;;;5094141;28;20032;-71
2022/03/10 01:27:25;;;;;;;21.15;12.15;;;3.70;99.90;;;;;;5092820;28;20097;-71
2022/03/10 01:29:51;;;;;;;20.00;11.48;;;3.70;99.90;;;;;;5092909;28;20055;-71
2022/03/10 01:32:17;;;;;;;21.75;11.50;;;3.70;99.90;;;;;;5093147;28;20028;-72
2022/03/10 01:34:42;;;;;;;20.40;11.27;;;3.70;99.90;;;;;;5092334;28;20082;-71
2022/03/10 01:37:08;;;;;;;18.23;10.52;;;3.60;99.90;;;;;;5098040;28;20513;-71
2022/03/10 01:39:33;;;;;;;27.42;11.95;;;3.60;99.10;;;;;;5101888;28;20098;-71
2022/03/10 01:42:00;;;;;;;27.08;11.85;;;3.70;99.60;;;;;;5095962;28;20439;-71
2022/03/10 01:44:26;;;;;;;23.35;11.95;;;3.60;99.90;;;;;;5092351;28;20044;-71
2022/03/10 01:46:52;;;;;;;18.80;10.48;;;3.70;99.90;;;;;;5093792;28;20047;-71
2022/03/10 01:49:17;;;;;;;21.67;12.30;;;3.70;99.80;;;;;;5098942;28;20038;-70
2022/03/10 01:51:43;;;;;;;20.75;11.50;;;3.70;98.80;;;;;;5119010;28;20028;-71
2022/03/10 01:54:09;;;;;;;23.35;11.38;;;3.60;99.90;;;;;;5109120;28;20043;-71
2022/03/10 01:56:35;;;;;;;21.05;11.15;;;3.60;99.90;;;;;;5100665;28;20386;-71
2022/03/10 01:59:03;;;;;;;21.92;11.70;;;3.50;99.90;;;;;;5089309;28;20047;-71
2022/03/10 02:01:28;;;;;;;20.60;11.55;;;3.40;99.90;;;;;;5095744;28;20523;-71
2022/03/10 02:03:57;;;;;;;21.00;12.45;;;3.50;99.90;;;;;;5092661;28;20040;-71
2022/03/10 02:06:23;;;;;;;20.20;11.35;;;3.50;99.90;;;;;;5091767;28;20058;-71
2022/03/10 02:11:33;;;;;;;23.58;12.35;;;3.40;99.90;;;;;;5091471;28;20040;-71
2022/03/10 02:17:19;;;;;;;20.77;12.52;;;3.40;99.90;;;;;;5091899;28;20058;-71
2022/03/10 02:19:29;;;;;;;26.38;13.07;;;3.30;99.90;;;;;;5092633;28;20048;-71
2022/03/10 02:21:57;;;;;;;21.00;11.70;;;3.20;99.90;;;;;;5074165;28;20032;-72
2022/03/10 02:24:23;;;;;;;19.88;12.27;;;3.20;99.90;;;;;;5091565;28;20067;-71
2022/03/10 02:26:49;;;;;;;23.35;13.35;;;3.20;99.90;;;;;;5092952;28;20044;-70
2022/03/10 02:29:15;;;;;;;23.85;12.52;;;3.10;99.90;;;;;;5091232;28;20047;-70
2022/03/10 02:31:41;;;;;;;19.75;12.27;;;3.10;99.90;;;;;;5090993;28;20047;-70
2022/03/10 02:34:09;;;;;;;24.88;12.60;;;3.10;99.90;;;;;;5092612;28;20032;-71
2022/03/10 02:36:35;;;;;;;21.98;12.05;;;3.10;99.90;;;;;;5091225;28;20040;-70
2022/03/10 02:39:00;;;;;;;29.88;13.90;;;3.10;99.90;;;;;;5090766;28;20097;-70
2022/03/10 02:41:26;;;;;;;24.77;12.35;;;3.00;99.90;;;;;;5092399;28;20047;-70
2022/03/10 02:43:51;;;;;;;23.73;12.48;;;2.90;99.90;;;;;;5090150;28;20616;-71
2022/03/10 02:46:17;;;;;;;22.35;12.32;;;3.00;99.90;;;;;;5092217;28;20131;-70
2022/03/10 02:48:42;;;;;;;21.92;12.93;;;3.00;99.90;;;;;;5092220;28;20045;-71
2022/03/10 02:51:08;;;;;;;25.55;12.20;;;2.90;99.90;;;;;;5092285;28;20085;-70
2022/03/10 02:53:33;;;;;;;20.90;11.80;;;2.90;99.90;;;;;;5091688;28;20188;-71
2022/03/10 02:55:59;;;;;;;21.67;12.02;;;3.00;99.90;;;;;;5095485;28;20040;-70
2022/03/10 02:58:25;;;;;;;22.45;12.40;;;3.00;99.90;;;;;;5099643;28;20127;-70
2022/03/10 03:00:51;;;;;;;26.52;13.35;;;2.90;99.90;;;;;;5092335;28;20040;-70
2022/03/10 03:03:17;;;;;;;23.05;12.95;;;2.80;99.90;;;;;;5092186;28;20032;-70
2022/03/10 03:05:43;;;;;;;21.52;12.55;;;2.80;99.90;;;;;;5094566;28;20698;-70
2022/03/10 03:08:08;;;;;;;21.45;12.30;;;2.80;99.90;;;;;;5095537;28;20036;-71
2022/03/10 03:10:36;;;;;;;20.50;11.95;;;2.70;99.90;;;;;;5097635;28;20411;-70
2022/03/10 03:13:05;;;;;;;26.88;12.98;;;2.70;99.90;;;;;;5099753;28;20044;-69
2022/03/10 03:15:30;;;;;;;23.08;12.07;;;2.60;99.90;;;;;;5117347;28;20050;-70
2022/03/10 03:17:57;;;;;;;23.40;12.00;;;2.60;99.90;;;;;;5112678;28;20385;-71
2022/03/10 03:20:23;;;;;;;20.23;12.30;;;2.60;99.90;;;;;;5092318;28;20048;-71
2022/03/10 03:22:48;;;;;;;19.83;12.25;;;2.60;99.90;;;;;;5091081;28;20040;-71
2022/03/10 03:25:14;;;;;;;21.33;11.63;;;2.60;99.90;;;;;;5089264;28;20036;-71
2022/03/10 03:27:43;;;;;;;22.83;12.07;;;2.80;99.90;;;;;;5090237;28;20111;-71
2022/03/10 03:30:09;;;;;;;21.25;11.35;;;2.80;99.90;;;;;;5091317;28;20119;-71
2022/03/10 03:32:35;;;;;;;23.70;10.52;;;2.80;99.90;;;;;;5090097;28;20572;-71
2022/03/10 03:35:01;;;;;;;21.00;11.90;;;2.70;99.90;;;;;;5091519;28;20123;-71
2022/03/10 03:37:27;;;;;;;23.20;11.27;;;2.70;99.90;;;;;;5091411;28;20123;-71
2022/03/10 03:39:52;;;;;;;23.45;11.40;;;2.70;99.90;;;;;;5091461;28;20036;-71
2022/03/10 03:42:18;;;;;;;19.23;10.27;;;2.60;99.90;;;;;;5090261;28;20032;-71
2022/03/10 03:44:43;;;;;;;22.13;11.43;;;2.60;99.90;;;;;;5091263;28;20046;-71
2022/03/10 03:47:09;;;;;;;17.42;10.57;;;2.60;99.90;;;;;;5089637;28;20431;-71
2022/03/10 03:49:35;;;;;;;21.08;11.10;;;2.60;99.90;;;;;;5091062;28;20196;-71
2022/03/10 03:52:00;;;;;;;22.63;11.10;;;2.60;99.90;;;;;;5072470;28;20111;-71
2022/03/10 03:54:26;;;;;;;20.50;10.35;;;2.60;99.90;;;;;;5072802;28;20093;-71
2022/03/10 03:56:52;;;;;;;20.92;10.98;;;2.60;99.90;;;;;;5091140;28;20125;-71
2022/03/10 03:59:17;;;;;;;20.13;9.98;;;2.60;99.90;;;;;;5089864;28;20080;-71
2022/03/10 04:01:43;;;;;;;20.90;10.60;;;2.60;99.90;;;;;;5090638;28;20047;-71
2022/03/10 04:04:08;;;;;;;27.42;10.52;;;2.60;99.90;;;;;;5089564;28;20036;-71
2022/03/10 04:06:34;;;;;;;19.48;10.63;;;2.60;99.90;;;;;;5091089;28;20050;-71
2022/03/10 04:08:59;;;;;;;20.17;11.00;;;2.70;99.90;;;;;;5090999;28;20127;-71
2022/03/10 04:11:25;;;;;;;26.60;10.70;;;2.70;99.90;;;;;;5090929;28;20040;-71
2022/03/10 04:13:51;;;;;;;21.55;10.60;;;2.70;99.90;;;;;;5089297;28;20048;-71
2022/03/10 04:16:17;;;;;;;18.38;10.30;;;2.70;99.90;;;;;;5100215;28;20046;-71
2022/03/10 04:18:42;;;;;;;19.13;11.07;;;2.70;99.90;;;;;;5099513;28;20141;-70
2022/03/10 04:21:08;;;;;;;17.77;9.80;;;2.70;99.90;;;;;;5093977;28;20084;-70
2022/03/10 04:23:34;;;;;;;21.40;10.75;;;2.70;99.90;;;;;;5105335;28;20105;-71
2022/03/10 04:26:00;;;;;;;23.88;10.30;;;2.70;99.90;;;;;;5097678;28;20064;-70
2022/03/10 04:28:26;;;;;;;19.95;10.70;;;2.60;99.90;;;;;;5089242;28;20058;-71
2022/03/10 04:30:52;;;;;;;19.58;10.85;;;2.60;99.90;;;;;;5089434;28;20119;-70
2022/03/10 04:33:17;;;;;;;22.65;11.05;;;2.60;99.90;;;;;;5088597;28;20082;-72
2022/03/10 04:35:44;;;;;;;18.10;10.55;;;2.60;99.90;;;;;;5088326;28;20040;-70
2022/03/10 04:38:10;;;;;;;19.55;9.75;;;2.60;99.90;;;;;;5088301;28;20067;-69
2022/03/10 04:40:37;;;;;;;20.10;10.80;;;2.50;99.90;;;;;;5116106;28;20199;-70
2022/03/10 04:43:03;;;;;;;21.92;11.85;;;2.50;99.90;;;;;;5096623;28;20040;-70
2022/03/10 04:45:28;;;;;;;17.75;10.40;;;2.50;99.90;;;;;;5090902;28;20055;-71
2022/03/10 04:47:54;;;;;;;18.63;10.07;;;2.50;99.90;;;;;;5090781;28;20133;-71
2022/03/10 04:50:20;;;;;;;16.98;9.85;;;2.50;99.90;;;;;;5090767;28;20044;-71
2022/03/10 04:52:45;;;;;;;20.67;10.93;;;2.50;99.90;;;;;;5088408;28;20055;-71
2022/03/10 04:55:12;;;;;;;16.95;10.38;;;2.60;99.90;;;;;;5089022;28;20036;-70
2022/03/10 04:57:39;;;;;;;20.85;10.80;;;2.50;99.90;;;;;;5090688;28;20102;-70
2022/03/10 05:00:08;;;;;;;18.60;10.15;;;2.50;99.90;;;;;;5090760;28;20430;-70
2022/03/10 05:02:35;;;;;;;19.40;10.85;;;2.60;99.90;;;;;;5089618;28;20047;-70
2022/03/10 05:05:02;;;;;;;19.63;11.77;;;2.60;99.90;;;;;;5090584;28;20071;-70
2022/03/10 05:07:27;;;;;;;20.00;10.82;;;2.50;99.90;;;;;;5090332;28;20040;-70
2022/03/10 05:09:53;;;;;;;22.75;10.38;;;2.50;99.90;;;;;;5089331;28;20089;-70
2022/03/10 05:12:19;;;;;;;21.80;10.07;;;2.50;99.90;;;;;;5089806;28;20047;-70
2022/03/10 05:14:44;;;;;;;21.08;11.15;;;2.50;99.90;;;;;;5090580;28;20043;-70
2022/03/10 05:17:10;;;;;;;22.35;10.43;;;2.50;99.90;;;;;;5090257;28;20044;-69
2022/03/10 05:19:35;;;;;;;21.13;11.38;;;2.50;99.90;;;;;;5090444;28;20048;-69
2022/03/10 05:22:01;;;;;;;22.13;11.35;;;2.40;99.90;;;;;;5089408;28;20043;-70
2022/03/10 05:24:26;;;;;;;20.52;11.02;;;2.40;99.90;;;;;;5088730;28;20035;-70
2022/03/10 05:26:52;;;;;;;20.58;11.38;;;2.40;99.90;;;;;;5088977;28;20406;-70
2022/03/10 05:29:18;;;;;;;17.27;10.57;;;2.30;99.90;;;;;;5090275;28;20036;-70
2022/03/10 05:31:43;;;;;;;17.05;11.50;;;2.30;99.90;;;;;;5089391;28;20048;-70
2022/03/10 05:34:09;;;;;;;16.02;10.25;;;2.30;99.90;;;;;;5093539;28;20040;-70
2022/03/10 05:36:36;;;;;;;17.40;10.63;;;2.40;99.90;;;;;;5103539;28;20048;-70
2022/03/10 05:39:02;;;;;;;20.42;11.05;;;2.30;99.90;;;;;;5099256;28;20105;-69
2022/03/10 05:41:31;;;;;;;19.10;11.07;;;2.30;99.90;;;;;;5097323;28;20046;-70
2022/03/10 05:43:56;;;;;;;23.48;11.88;;;2.30;99.90;;;;;;5088761;28;20079;-70
2022/03/10 05:46:22;;;;;;;20.27;11.35;;;2.20;99.90;;;;;;5089972;28;20072;-70
2022/03/10 05:48:47;;;;;;;21.67;11.23;;;2.30;99.90;;;;;;5091905;28;20040;-70
2022/03/10 05:51:13;;;;;;;18.58;10.70;;;2.20;99.90;;;;;;5087306;28;20111;-70
2022/03/10 05:53:38;;;;;;;19.88;11.40;;;2.20;99.90;;;;;;5081703;28;20443;-70
2022/03/10 05:56:04;;;;;;;20.77;11.30;;;2.20;99.90;;;;;;5084816;28;20183;-70
2022/03/10 05:58:30;;;;;;;21.95;10.90;;;2.20;99.90;;;;;;5093843;28;20555;-70
2022/03/10 06:00:55;;;;;;;20.45;11.32;;;2.20;99.90;;;;;;5092495;28;20097;-69
2022/03/10 06:03:21;;;;;;;21.15;10.77;;;2.20;99.90;;;;;;5109832;28;20036;-69
2022/03/10 06:05:46;;;;;;;21.88;12.02;;;2.20;99.90;;;;;;5115836;28;20036;-70
2022/03/10 06:08:12;;;;;;;17.90;10.43;;;2.10;99.90;;;;;;5094936;28;20540;-70
2022/03/10 06:10:37;;;;;;;20.00;12.93;;;2.10;99.90;;;;;;5093720;28;20573;-70
2022/03/10 06:13:04;;;;;;;22.45;11.63;;;2.00;99.90;;;;;;5092742;28;20132;-70
2022/03/10 06:15:30;;;;;;;20.77;11.65;;;2.00;99.90;;;;;;5094230;28;20036;-70
2022/03/10 06:17:55;;;;;;;21.17;11.27;;;2.00;99.90;;;;;;5075597;28;20629;-70
2022/03/10 06:20:21;;;;;;;18.60;11.25;;;2.10;99.90;;;;;;5093112;28;20048;-71
2022/03/10 06:22:46;;;;;;;21.92;12.07;;;2.10;99.90;;;;;;5092152;28;20036;-71
2022/03/10 06:25:13;;;;;;;22.10;11.20;;;2.20;99.90;;;;;;5091800;28;20032;-72
2022/03/10 06:27:38;;;;;;;19.85;11.43;;;2.20;99.90;;;;;;5092557;28;20496;-72
2022/03/10 06:30:04;;;;;;;19.85;10.50;;;2.30;99.90;;;;;;5092895;28;20040;-72
2022/03/10 06:32:30;;;;;;;22.88;11.13;;;2.30;99.90;;;;;;5090088;28;20055;-72
2022/03/10 06:34:59;;;;;;;22.42;11.82;;;2.20;99.90;;;;;;5092144;28;20043;-72
2022/03/10 06:37:25;;;;;;;23.30;12.27;;;2.30;99.90;;;;;;5091021;28;20512;-72
2022/03/10 06:39:52;;;;;;;22.63;11.43;;;2.40;99.90;;;;;;5091013;28;20032;-72
2022/03/10 06:42:18;;;;;;;19.55;11.95;;;2.40;99.90;;;;;;5090051;28;20040;-72
2022/03/10 06:44:44;;;;;;;22.70;12.77;;;2.50;99.90;;;;;;5092505;28;20484;-72
2022/03/10 06:47:09;;;;;;;22.67;12.07;;;2.60;99.90;;;;;;5093503;28;20068;-72
2022/03/10 06:49:36;;;;;;;25.08;11.80;;;2.60;99.90;;;;;;5093869;28;20048;-72
2022/03/10 06:52:01;;;;;;;19.00;10.77;;;2.60;99.90;;;;;;5091617;28;20079;-71
2022/03/10 06:54:27;;;;;;;24.85;11.23;;;2.60;99.90;;;;;;5092607;28;20072;-72
2022/03/10 06:56:53;;;;;;;21.80;12.60;;;2.60;99.90;;;;;;5100986;28;20040;-73
2022/03/10 06:59:18;;;;;;;21.73;12.73;;;2.70;99.90;;;;;;5090645;28;20036;-71
2022/03/10 07:01:45;;;;;;;21.85;12.23;;;2.70;99.90;;;;;;5089714;28;20051;-71
2022/03/10 07:04:11;;;;;;;19.58;11.85;;;2.80;99.90;;;;;;5091904;28;20048;-72
2022/03/10 07:06:36;;;;;;;21.33;12.60;;;2.90;99.90;;;;;;5090647;28;20373;-72
2022/03/10 07:09:02;;;;;;;21.35;11.68;;;2.90;99.90;;;;;;5090942;28;20432;-72
2022/03/10 07:11:28;;;;;;;22.70;12.30;;;3.00;99.90;;;;;;5090711;28;20075;-72
2022/03/10 07:13:53;;;;;;;30.63;12.20;;;3.10;99.90;;;;;;5090205;28;20047;-72
2022/03/10 07:16:19;;;;;;;24.45;11.48;;;3.10;99.90;;;;;;5090626;28;20035;-72
2022/03/10 07:18:50;;;;;;;20.85;11.18;;;3.20;99.90;;;;;;5092014;28;20118;-72
2022/03/10 07:21:20;;;;;;;29.00;12.48;;;3.30;99.90;;;;;;5091968;28;20059;-72
2022/03/10 07:23:46;;;;;;;20.88;12.27;;;3.40;99.90;;;;;;5091080;28;20404;-73
2022/03/10 07:26:12;;;;;;;22.08;12.68;;;3.50;99.90;;;;;;5092850;28;20036;-72
2022/03/10 07:28:38;;;;;;;22.38;12.00;;;3.50;99.90;;;;;;5111730;28;20043;-71
2022/03/10 07:31:04;;;;;;;20.63;12.05;;;3.60;99.90;;;;;;5117144;28;20024;-71
2022/03/10 07:33:29;;;;;;;21.58;11.98;;;3.70;99.90;;;;;;5096038;28;20044;-72
2022/03/10 07:35:55;;;;;;;26.45;12.82;;;3.70;99.90;;;;;;5090295;28;20180;-72
2022/03/10 07:38:21;;;;;;;22.23;12.10;;;3.80;99.90;;;;;;5090070;28;20036;-72
2022/03/10 07:40:46;;;;;;;21.13;12.48;;;3.90;99.90;;;;;;5090092;28;20162;-72
2022/03/10 07:43:12;;;;;;;20.73;13.23;;;4.10;99.90;;;;;;5072252;28;20032;-72
2022/03/10 07:45:37;;;;;;;20.10;11.63;;;4.20;99.90;;;;;;5089864;28;20044;-72
2022/03/10 07:48:04;;;;;;;18.75;11.48;;;4.10;99.90;;;;;;5089628;28;20040;-72
2022/03/10 07:50:29;;;;;;;24.92;13.02;;;4.20;99.90;;;;;;5089685;28;20050;-72
2022/03/10 07:52:55;;;;;;;22.05;12.40;;;4.30;99.90;;;;;;5088850;28;20036;-73
2022/03/10 07:55:21;;;;;;;24.35;11.75;;;4.40;99.90;;;;;;5089572;28;20416;-72
2022/03/10 07:57:46;;;;;;;21.40;12.23;;;4.40;99.90;;;;;;5089662;28;20476;-71
2022/03/10 08:00:12;;;;;;;21.35;12.52;;;4.50;99.90;;;;;;5091057;28;20028;-72
2022/03/10 08:02:38;;;;;;;23.85;12.40;;;4.60;99.90;;;;;;5088851;28;20044;-70
2022/03/10 08:05:04;;;;;;;26.23;12.68;;;4.80;99.90;;;;;;5096732;28;20042;-70
2022/03/10 08:07:34;;;;;;;23.52;12.35;;;4.80;99.90;;;;;;5076966;28;20408;-70
2022/03/10 08:10:00;;;;;;;21.75;12.65;;;4.80;99.90;;;;;;5089106;28;20459;-70
2022/03/10 08:12:28;;;;;;;19.05;11.73;;;4.90;99.90;;;;;;5087723;28;20040;-69
2022/03/10 08:14:53;;;;;;;20.73;11.88;;;5.00;99.90;;;;;;5089181;28;20067;-70
2022/03/10 08:17:19;;;;;;;22.63;12.15;;;5.00;99.90;;;;;;5088844;28;20075;-70
2022/03/10 08:19:45;;;;;;;22.67;11.75;;;5.10;99.90;;;;;;5088238;28;20040;-70
2022/03/10 08:22:10;;;;;;;20.77;11.75;;;5.20;99.90;;;;;;5088918;28;20032;-69
2022/03/10 08:24:36;;;;;;;18.42;11.73;;;5.20;99.90;;;;;;5090667;28;20089;-69
2022/03/10 08:27:02;;;;;;;23.48;11.68;;;5.20;99.90;;;;;;5090726;28;20464;-69
2022/03/10 08:29:27;;;;;;;20.10;11.77;;;5.30;99.90;;;;;;5090731;28;20035;-69
2022/03/10 08:31:53;;;;;;;21.67;11.57;;;5.40;99.90;;;;;;5089635;28;20075;-69
2022/03/10 08:34:18;;;;;;;19.55;11.40;;;5.40;99.90;;;;;;5090507;28;20413;-69
2022/03/10 08:36:44;;;;;;;18.67;11.05;;;5.40;99.90;;;;;;5090296;28;20396;-69
2022/03/10 08:39:10;;;;;;;21.05;12.63;;;5.50;99.90;;;;;;5090133;28;20040;-69
2022/03/10 08:41:36;;;;;;;23.60;11.90;;;5.60;99.90;;;;;;5071793;28;20048;-69
2022/03/10 08:44:02;;;;;;;21.17;11.50;;;5.70;99.90;;;;;;5089903;28;20094;-69
2022/03/10 08:46:27;;;;;;;23.38;12.20;;;5.80;99.90;;;;;;5090211;28;20067;-69
2022/03/10 08:48:53;;;;;;;21.67;11.80;;;5.90;99.90;;;;;;5090172;28;20036;-70
2022/03/10 08:51:18;;;;;;;17.02;11.00;;;6.10;99.90;;;;;;5089013;28;20055;-69
2022/03/10 08:53:44;;;;;;;27.10;12.55;;;6.10;99.90;;;;;;5090166;28;20040;-69
2022/03/10 08:56:10;;;;;;;21.17;12.20;;;6.20;99.90;;;;;;5100852;28;20043;-70
2022/03/10 08:58:36;;;;;;;23.48;11.80;;;6.30;99.90;;;;;;5109684;28;20120;-70
2022/03/10 09:01:02;;;;;;;24.15;11.85;;;6.50;99.90;;;;;;5099909;28;20108;-70
2022/03/10 09:03:30;;;;;;;19.77;11.50;;;6.50;99.90;;;;;;5089158;28;20032;-68
2022/03/10 09:05:55;;;;;;;19.30;11.43;;;6.60;99.90;;;;;;5090190;28;20483;-69
2022/03/10 09:08:21;;;;;;;24.52;11.50;;;6.70;99.90;;;;;;5090173;28;20044;-70
2022/03/10 09:10:47;;;;;;;21.02;11.15;;;6.70;99.90;;;;;;5090218;28;20048;-70
2022/03/10 09:13:12;;;;;;;20.05;11.80;;;6.90;99.80;;;;;;5087647;28;20485;-70
2022/03/10 09:15:38;;;;;;;25.48;11.80;;;7.00;98.10;;;;;;5088825;28;20111;-70
2022/03/10 09:18:03;;;;;;;26.00;11.98;;;7.00;99.90;;;;;;5090392;28;20498;-69
2022/03/10 09:20:31;;;;;;;19.80;11.10;;;7.20;96.90;;;;;;5100403;28;20048;-70
2022/03/10 09:22:57;;;;;;;18.65;10.60;;;7.20;96.80;;;;;;5093817;28;20036;-70
2022/03/10 09:25:22;;;;;;;19.02;11.93;;;7.30;97.50;;;;;;5094123;28;20042;-70
2022/03/10 09:27:48;;;;;;;22.70;11.73;;;7.30;99.70;;;;;;5093741;28;20070;-70
2022/03/10 09:30:14;;;;;;;18.50;12.07;;;7.40;94.70;;;;;;5093916;28;20067;-69
2022/03/10 09:32:43;;;;;;;19.83;11.48;;;7.40;95.20;;;;;;5092955;28;20112;-70
2022/03/10 09:35:11;;;;;;;19.77;11.40;;;7.60;91.30;;;;;;5093634;28;20425;-70
2022/03/10 09:37:36;;;;;;;20.80;11.63;;;7.70;90.00;;;;;;5093501;28;20083;-70
2022/03/10 09:40:03;;;;;;;22.38;11.80;;;7.80;96.00;;;;;;5093519;28;20449;-69
2022/03/10 09:42:31;;;;;;;20.17;11.85;;;7.90;95.50;;;;;;5092547;28;20055;-69
2022/03/10 09:44:59;;;;;;;17.55;10.93;;;7.90;95.90;;;;;;5093242;28;20036;-70
2022/03/10 09:47:25;;;;;;;21.48;11.35;;;8.00;92.60;;;;;;5093279;28;20032;-70
2022/03/10 09:49:52;;;;;;;18.67;11.10;;;8.10;90.10;;;;;;5093220;28;20055;-70
2022/03/10 09:52:19;;;;;;;20.42;11.63;;;8.20;87.30;;;;;;5092818;28;20040;-71
2022/03/10 09:54:45;;;;;;;22.10;12.07;;;8.10;91.20;;;;;;5093301;28;20048;-70
2022/03/10 09:57:14;;;;;;;24.73;11.48;;;8.40;95.60;;;;;;5074978;28;20036;-70
2022/03/10 09:59:57;;;;;;;19.65;11.48;;;8.50;78.10;;;;;;5093155;28;20047;-70
2022/03/10 10:02:23;;;;;;;;;;;8.60;84.80;;;;;;5092856;28;20072;-70
2022/03/10 10:04:51;;;;;;;18.13;11.52;;;8.70;91.00;;;;;;5093262;28;19989;-70
2022/03/10 10:07:26;;;;;;;22.17;11.48;;;8.80;82.30;;;;;;5093089;28;20420;-70
2022/03/10 10:09:57;;;;;;;19.20;11.15;;;8.90;79.70;;;;;;5091713;28;20044;-71
2022/03/10 10:12:30;;;;;;;20.08;11.48;;;9.10;86.10;;;;;;5092382;28;20036;-71
2022/03/10 10:14:58;;;;;;;24.48;11.85;;;9.10;66.40;;;;;;5092495;28;20051;-71
2022/03/10 10:17:35;;;;;;;20.25;11.40;;;9.10;70.10;;;;;;5100268;28;20043;-70
2022/03/10 10:20:01;;;;;;;20.08;11.45;;;9.20;67.80;;;;;;5109803;28;20096;-70
2022/03/10 10:22:28;;;;;;;22.17;11.85;;;9.20;68.70;;;;;;5097935;28;20047;-71
2022/03/10 10:25:02;;;;;;;20.15;11.27;;;9.30;76.90;;;;;;5093579;28;20044;-70
2022/03/10 10:27:32;;;;;;;20.55;11.50;;;9.40;65.40;;;;;;5092714;28;20066;-70
2022/03/10 10:30:01;;;;;;;18.90;11.43;;;9.50;71.40;;;;;;5099683;28;20044;-70
2022/03/10 10:32:31;;;;;;;18.88;11.63;;;9.70;70.60;;;;;;5103331;28;20039;-71
2022/03/10 10:35:04;;;;;;;18.02;12.45;;;9.70;65.80;;;;;;5093365;28;20135;-71
2022/03/10 10:37:30;;;;;;;20.13;12.00;;;9.80;64.70;;;;;;5091372;28;20484;-71
2022/03/10 10:39:59;;;;;;;19.33;11.35;;;10.00;61.90;;;;;;5092346;28;20036;-71
2022/03/10 10:42:32;;;;;;;26.92;13.07;;;9.90;62.40;;;;;;5091719;28;20531;-70
2022/03/10 10:44:59;;;;;;;21.00;12.20;;;10.00;61.50;;;;;;5092688;28;20036;-71
2022/03/10 10:47:31;;;;;;;20.45;12.65;;;10.00;67.70;;;;;;5092283;28;20420;-71
2022/03/10 10:50:01;;;;;;;21.67;12.20;;;10.20;61.00;;;;;;5092536;28;20048;-71
2022/03/10 10:52:42;;;;;;;22.45;12.38;;;10.30;67.70;;;;;;5073294;28;20072;-70
2022/03/10 10:55:11;;;;;;;24.33;12.07;;;10.30;61.90;;;;;;5092378;28;20374;-70
2022/03/10 10:57:38;;;;;;;20.85;12.32;;;10.30;60.30;;;;;;5090999;28;20058;-71
2022/03/10 11:00:08;;;;;;;21.48;11.93;;;10.40;62.10;;;;;;5090378;28;20036;-70
2022/03/10 11:02:35;;;;;;;23.65;13.60;;;10.50;60.20;;;;;;5089881;28;20059;-70
2022/03/10 11:05:01;;;;;;;20.63;12.38;;;10.60;58.90;;;;;;5090377;28;20125;-71
2022/03/10 11:07:26;;;;;;;18.77;11.88;;;10.70;59.60;;;;;;5091697;28;20067;-71
2022/03/10 11:09:52;;;;;;;20.30;12.45;;;10.80;59.70;;;;;;5091761;28;20040;-71
2022/03/10 11:12:18;;;;;;;22.17;13.20;;;10.90;57.60;;;;;;5091365;28;20048;-71
2022/03/10 11:14:45;;;;;;;21.13;13.20;;;11.00;54.10;;;;;;5091654;28;20035;-71
2022/03/10 11:17:13;;;;;;;29.80;13.48;;;11.00;53.60;;;;;;5090382;28;20048;-71
2022/03/10 11:19:49;;;;;;;21.42;12.43;;;11.10;51.20;;;;;;5091723;28;20044;-71
2022/03/10 11:22:40;;;;;;;21.48;12.77;;;11.20;50.80;;;;;;5089779;28;20105;-71
2022/03/10 11:25:09;;;;;;;20.45;12.32;;;11.20;51.40;;;;;;5090670;28;20404;-71
2022/03/10 11:27:39;;;;;;;23.83;12.15;;;11.20;53.70;;;;;;5090278;28;20126;-71
2022/03/10 11:30:06;;;;;;;20.52;12.77;;;11.30;52.10;;;;;;5090356;28;20044;-71
2022/03/10 11:32:33;;;;;;;22.33;13.00;;;11.40;52.00;;;;;;5090816;28;20127;-71
2022/03/10 11:35:00;;;;;;;22.83;13.32;;;11.40;50.00;;;;;;5091452;28;20048;-71
2022/03/10 11:37:45;;;;;;;22.23;13.43;;;11.50;50.50;;;;;;5096192;28;20059;-71
2022/03/10 11:40:37;;;;;;;25.40;13.48;;;11.50;49.50;;;;;;5112900;28;20072;-71
2022/03/10 11:43:04;;;;;;;26.80;13.10;;;11.60;50.20;;;;;;5106173;28;20101;-71
2022/03/10 11:45:31;;;;;;;23.73;12.48;;;11.60;51.30;;;;;;5102483;28;20433;-71
2022/03/10 11:48:22;;;;;;;20.05;12.68;;;11.60;50.00;;;;;;5091804;28;20115;-71
2022/03/10 11:50:51;;;;;;;24.17;12.77;;;11.70;50.40;;;;;;5090504;28;20657;-75
2022/03/10 11:53:18;;;;;;;23.30;14.38;;;11.80;49.70;;;;;;5089128;28;20047;-77
2022/03/10 11:55:46;;;;;;;20.02;12.93;;;11.80;49.50;;;;;;5089624;28;20089;-74
2022/03/10 11:58:13;;;;;;;22.52;12.93;;;11.80;50.50;;;;;;5090455;28;20140;-74
2022/03/10 12:00:39;;;;;;;23.25;13.00;;;11.80;49.40;;;;;;5090074;28;20058;-75
2022/03/10 12:03:05;;;;;;;26.50;13.60;;;11.90;50.20;;;;;;5090162;28;20114;-75
2022/03/10 12:05:55;;;;;;;24.67;13.90;;;12.00;50.40;;;;;;5072857;28;20040;-74
2022/03/10 12:08:22;;;;;;;25.77;13.48;;;12.00;49.80;;;;;;5072697;28;20040;-74
2022/03/10 12:10:48;;;;;;;23.90;12.05;;;12.10;48.20;;;;;;5089691;28;20036;-74
2022/03/10 12:13:34;;;;;;;25.92;14.35;;;12.20;50.10;;;;;;5072433;28;20092;-74
2022/03/10 12:16:02;;;;;;;24.95;13.95;;;12.10;49.50;;;;;;5089850;28;20074;-74
2022/03/10 12:18:41;;;;;;;25.58;14.05;;;12.40;48.80;;;;;;5089539;28;20040;-74
2022/03/10 12:21:24;;;;;;;27.63;14.52;;;12.40;49.60;;;;;;5089353;28;20078;-74
2022/03/10 12:24:04;;;;;;;25.65;13.02;;;12.40;49.70;;;;;;5088652;28;20115;-74
2022/03/10 12:26:31;;;;;;;27.83;13.77;;;12.50;50.90;;;;;;5089547;28;20039;-74
2022/03/10 12:29:06;;;;;;;28.23;13.75;;;12.50;51.70;;;;;;5089462;28;20048;-74
2022/03/10 12:31:35;;;;;;;25.65;13.93;;;12.60;51.70;;;;;;5090660;28;20113;-74
2022/03/10 12:34:03;;;;;;;28.98;15.45;;;12.70;50.10;;;;;;5088682;28;20516;-74
2022/03/10 12:36:35;;;;;;;25.50;13.95;;;12.70;51.50;;;;;;5089301;28;20468;-74
2022/03/10 12:39:22;;;;;;;25.70;14.35;;;12.70;52.40;;;;;;5089695;28;20063;-74
2022/03/10 12:41:54;;;;;;;20.17;10.35;;;12.90;50.20;;;;;;5088511;28;20207;-74